LEJR/XRY METAR and TAF weather

Enter ICAO airport designator
Station Type Date Time Source
LEJR METAR 2019/02/20 07:30 UTC NOAA

LEJR 200730Z 00000KT CAVOK 06/05 Q1021


Station Type Date Time Source
LEJR Decoded METAR 2019/02/20 07:30 UTC NOAA

Jerez De La Fronteraaeropuerto, Spain (LEJR) 36-45N 006-04W 28M
Feb 20, 2019 - 02:30 AM EST / 2019.02.20 0730 UTC
Wind: Calm:0
Visibility: greater than 7 mile(s):0
Temperature: 42 F (6 C)
Dew Point: 41 F (5 C)
Relative Humidity: 93%
Pressure (altimeter): 30.15 in. Hg (1021 hPa)
ob: LEJR 200730Z 00000KT CAVOK 06/05 Q1021
cycle: 7

Station Type Date Time Source
LEJR TAF 2019/02/20 06:27 UTC NOAA

TAF LEJR 200500Z 2006/2106 14007KT CAVOK TX20/2014Z TN05/2006Z


Example: see airport list